createdAt,value
2019-01-25T00:01:39.028Z,31.00
2019-01-25T00:04:07.320Z,31.83
2019-01-25T00:06:35.599Z,30.83
2019-01-25T00:09:06.733Z,29.73
2019-01-25T00:11:34.985Z,28.87
2019-01-25T00:14:03.358Z,32.67
2019-01-25T00:16:31.592Z,27.30
2019-01-25T00:18:59.963Z,31.77
2019-01-25T00:21:28.255Z,28.80
2019-01-25T00:23:56.624Z,29.67
2019-01-25T00:26:24.982Z,31.63
2019-01-25T00:28:53.333Z,28.10
2019-01-25T00:31:21.710Z,28.07
2019-01-25T00:33:49.951Z,29.07
2019-01-25T00:36:18.398Z,27.20
2019-01-25T00:38:46.630Z,30.37
2019-01-25T00:41:14.859Z,29.67
2019-01-25T00:43:43.129Z,32.40
2019-01-25T00:46:11.379Z,30.63
2019-01-25T00:48:39.672Z,28.80
2019-01-25T00:51:08.438Z,30.50
2019-01-25T00:53:36.655Z,30.10
2019-01-25T00:56:05.407Z,29.23
2019-01-25T00:58:33.687Z,28.73
2019-01-25T01:01:01.939Z,29.47
2019-01-25T01:03:30.197Z,29.63
2019-01-25T01:05:58.525Z,29.77
2019-01-25T01:08:26.784Z,29.90
2019-01-25T01:10:55.032Z,32.33
2019-01-25T01:13:23.272Z,35.73
2019-01-25T01:15:51.498Z,35.33
2019-01-25T01:18:22.150Z,34.67
2019-01-25T01:20:50.555Z,32.20
2019-01-25T01:23:18.838Z,34.53
2019-01-25T01:25:47.049Z,34.20
2019-01-25T01:28:17.995Z,35.63
2019-01-25T01:30:46.343Z,32.07
2019-01-25T01:33:14.581Z,33.93
2019-01-25T01:35:42.859Z,35.57
2019-01-25T01:38:14.266Z,36.30
2019-01-25T01:40:42.526Z,34.80
2019-01-25T01:43:10.747Z,31.80
2019-01-25T01:45:39.001Z,34.87
2019-01-25T01:48:07.239Z,36.37
2019-01-25T01:50:35.469Z,36.50
2019-01-25T01:53:03.704Z,35.50
2019-01-25T01:55:31.957Z,34.57
2019-01-25T01:58:19.854Z,31.90
2019-01-25T02:00:48.135Z,33.97
2019-01-25T02:03:16.385Z,34.33
2019-01-25T02:05:44.635Z,34.20
2019-01-25T02:08:12.900Z,32.37
2019-01-25T02:10:41.108Z,30.97
2019-01-25T02:13:09.346Z,31.13
2019-01-25T02:15:37.573Z,32.50
2019-01-25T02:18:05.832Z,35.83
2019-01-25T02:20:34.071Z,32.47
2019-01-25T02:23:02.422Z,33.93
2019-01-25T02:25:30.726Z,33.33
2019-01-25T02:28:00.558Z,33.10
2019-01-25T02:30:28.843Z,32.50
2019-01-25T02:32:57.068Z,34.47
2019-01-25T02:35:25.291Z,34.27
2019-01-25T02:37:53.561Z,30.17
2019-01-25T02:40:22.652Z,32.23
2019-01-25T02:42:50.919Z,33.27
2019-01-25T02:45:19.181Z,28.90
2019-01-25T02:47:47.421Z,30.97
2019-01-25T02:50:16.499Z,30.40
2019-01-25T02:52:44.722Z,32.50
2019-01-25T02:55:12.970Z,33.80
2019-01-25T02:57:41.193Z,27.63
2019-01-25T03:00:19.391Z,28.93
2019-01-25T03:02:47.714Z,27.97
2019-01-25T03:05:16.357Z,31.67
2019-01-25T03:07:44.693Z,29.73
2019-01-25T03:10:12.928Z,28.77
2019-01-25T03:12:41.168Z,31.00
2019-01-25T03:15:13.057Z,28.43
2019-01-25T03:17:45.113Z,28.93
2019-01-25T03:20:13.369Z,29.73
2019-01-25T03:22:41.601Z,32.40
2019-01-25T03:25:10.658Z,30.20
2019-01-25T03:27:39.006Z,33.90
2019-01-25T03:30:08.649Z,32.40
2019-01-25T03:32:37.854Z,32.67
2019-01-25T03:35:06.439Z,33.43
2019-01-25T03:37:34.713Z,30.83
2019-01-25T03:40:03.002Z,30.37
2019-01-25T03:42:32.663Z,28.70
2019-01-25T03:45:00.969Z,29.17
2019-01-25T03:47:31.060Z,26.47
2019-01-25T03:49:59.321Z,29.00
2019-01-25T03:52:27.558Z,29.87
2019-01-25T03:54:56.739Z,32.13
2019-01-25T03:57:25.031Z,31.30
2019-01-25T03:59:53.257Z,30.47
2019-01-25T04:02:26.548Z,31.60
2019-01-25T04:04:54.786Z,27.57
2019-01-25T04:07:23.046Z,28.33
2019-01-25T04:09:51.292Z,30.53
2019-01-25T04:12:19.528Z,34.37
2019-01-25T04:14:47.803Z,26.83
2019-01-25T04:17:16.065Z,30.77
2019-01-25T04:19:44.283Z,30.07
2019-01-25T04:22:12.545Z,33.47
2019-01-25T04:24:40.755Z,31.73
2019-01-25T04:27:09.031Z,30.37
2019-01-25T04:29:37.263Z,30.10
2019-01-25T04:32:07.509Z,32.90
2019-01-25T04:34:35.784Z,31.80
2019-01-25T04:37:04.029Z,29.80
2019-01-25T04:39:32.371Z,32.90
2019-01-25T04:42:00.648Z,32.90
2019-01-25T04:44:28.940Z,34.13
2019-01-25T04:46:57.280Z,34.00
2019-01-25T04:49:25.552Z,31.93
2019-01-25T04:51:53.813Z,29.67
2019-01-25T04:54:22.055Z,35.03
2019-01-25T04:56:50.287Z,31.27
2019-01-25T04:59:18.536Z,32.47
2019-01-25T05:01:46.894Z,28.47
2019-01-25T05:04:15.140Z,32.77
2019-01-25T05:06:44.333Z,33.93
2019-01-25T05:09:12.609Z,32.00
2019-01-25T05:11:40.842Z,33.07
2019-01-25T05:14:09.113Z,31.20
2019-01-25T05:16:37.333Z,35.40
2019-01-25T05:19:05.595Z,34.50
2019-01-25T05:21:33.879Z,32.90
2019-01-25T05:24:08.183Z,29.67
2019-01-25T05:26:37.492Z,32.20
2019-01-25T05:29:05.799Z,33.00
2019-01-25T05:31:34.049Z,35.37
2019-01-25T05:34:02.343Z,37.50
2019-01-25T05:36:30.593Z,32.47
2019-01-25T05:38:58.925Z,37.17
2019-01-25T05:41:28.664Z,34.37
2019-01-25T05:43:57.152Z,34.30
2019-01-25T05:46:25.523Z,36.30
2019-01-25T05:48:53.788Z,35.27
2019-01-25T05:51:22.219Z,37.03
2019-01-25T05:53:53.341Z,36.43
2019-01-25T05:56:22.008Z,36.70
2019-01-25T05:58:50.260Z,35.43
2019-01-25T06:01:18.555Z,36.50
2019-01-25T06:03:47.796Z,34.23
2019-01-25T06:06:16.078Z,34.37
2019-01-25T06:08:44.364Z,36.93
2019-01-25T06:11:13.259Z,35.70
2019-01-25T06:13:44.827Z,37.77
2019-01-25T06:16:13.153Z,32.90
2019-01-25T06:18:41.491Z,42.50
2019-01-25T06:21:09.773Z,45.23
2019-01-25T06:23:38.013Z,37.17
2019-01-25T06:26:08.792Z,34.37
2019-01-25T06:28:37.077Z,36.10
2019-01-25T06:31:05.341Z,36.10
2019-01-25T06:33:33.592Z,33.60
2019-01-25T06:36:01.831Z,34.93
2019-01-25T06:38:30.088Z,34.40
2019-01-25T06:40:58.390Z,33.80
2019-01-25T06:43:26.660Z,34.67
2019-01-25T06:45:54.938Z,46.70
2019-01-25T06:48:23.180Z,48.67
2019-01-25T06:50:51.476Z,54.87
2019-01-25T06:53:21.866Z,43.80
2019-01-25T06:55:50.090Z,82.77
2019-01-25T06:58:36.116Z,53.60
2019-01-25T07:01:11.930Z,50.30
2019-01-25T07:03:40.191Z,42.93
2019-01-25T07:06:08.421Z,36.27
2019-01-25T07:08:36.724Z,36.83
2019-01-25T07:11:04.971Z,37.40
2019-01-25T07:13:33.208Z,35.33
2019-01-25T07:16:01.501Z,32.93
2019-01-25T07:18:29.895Z,33.93
2019-01-25T07:20:58.172Z,33.67
2019-01-25T07:23:26.399Z,33.80
2019-01-25T07:25:54.698Z,37.37
2019-01-25T07:28:22.952Z,36.90
2019-01-25T07:30:51.273Z,38.00
2019-01-25T07:33:19.607Z,41.63
2019-01-25T07:35:47.911Z,43.40
2019-01-25T07:38:18.645Z,35.17
2019-01-25T07:40:47.501Z,37.23
2019-01-25T07:43:15.780Z,40.73
2019-01-25T07:45:44.081Z,38.50
2019-01-25T07:48:12.351Z,42.87
2019-01-25T07:50:40.578Z,39.37
2019-01-25T07:53:08.864Z,39.47
2019-01-25T07:55:37.124Z,40.37
2019-01-25T07:58:05.953Z,37.40
2019-01-25T08:00:34.224Z,39.33
2019-01-25T08:03:02.532Z,38.60
2019-01-25T08:05:30.795Z,35.70
2019-01-25T08:07:59.144Z,39.07
2019-01-25T08:10:27.476Z,37.57
2019-01-25T08:12:55.860Z,39.30
2019-01-25T08:15:24.156Z,38.70
2019-01-25T08:17:52.529Z,35.37
2019-01-25T08:20:20.849Z,38.80
2019-01-25T08:22:49.169Z,34.30
2019-01-25T08:25:17.488Z,38.10
2019-01-25T08:27:45.899Z,40.43
2019-01-25T08:30:14.436Z,37.47
2019-01-25T08:32:42.715Z,35.50
2019-01-25T08:35:11.416Z,43.37
2019-01-25T08:37:39.832Z,36.63
2019-01-25T08:40:09.269Z,36.90
2019-01-25T08:42:37.620Z,37.13
2019-01-25T08:45:06.842Z,39.40
2019-01-25T08:47:35.183Z,39.87
2019-01-25T08:50:03.933Z,38.40
2019-01-25T08:52:35.193Z,37.33
2019-01-25T08:55:03.678Z,42.37
2019-01-25T08:57:31.956Z,40.27
2019-01-25T09:00:00.281Z,39.73
2019-01-25T09:02:28.547Z,35.17
2019-01-25T09:04:56.790Z,37.87
2019-01-25T09:07:26.612Z,33.30
2019-01-25T09:09:54.950Z,32.63
2019-01-25T09:12:23.631Z,37.00
2019-01-25T09:14:51.980Z,38.60
2019-01-25T09:17:21.232Z,40.00
2019-01-25T09:19:49.482Z,37.40
2019-01-25T09:22:17.712Z,36.00
2019-01-25T09:24:45.970Z,37.67
2019-01-25T09:27:14.222Z,37.10
2019-01-25T09:29:42.464Z,35.83
2019-01-25T09:32:10.708Z,36.03
2019-01-25T09:34:38.976Z,37.57
2019-01-25T09:37:07.228Z,35.00
2019-01-25T09:39:36.484Z,38.03
2019-01-25T09:42:04.741Z,38.13
2019-01-25T09:44:32.990Z,35.03
2019-01-25T09:47:01.281Z,40.50
2019-01-25T09:49:29.525Z,35.93
2019-01-25T09:51:57.793Z,38.07
2019-01-25T09:54:26.256Z,39.83
2019-01-25T09:56:54.536Z,38.80
2019-01-25T09:59:22.889Z,37.07
2019-01-25T10:01:51.145Z,41.10
2019-01-25T10:04:19.404Z,38.10
2019-01-25T10:06:47.768Z,39.30
2019-01-25T10:09:16.022Z,37.63
2019-01-25T10:11:44.256Z,45.10
2019-01-25T10:14:12.516Z,42.90
2019-01-25T10:16:40.791Z,43.30
2019-01-25T10:19:09.063Z,42.40
2019-01-25T10:21:37.360Z,43.80
2019-01-25T10:24:05.640Z,43.27
2019-01-25T10:26:33.889Z,45.43
2019-01-25T10:29:02.150Z,42.93
2019-01-25T10:31:30.453Z,44.10
2019-01-25T10:33:58.693Z,49.57
2019-01-25T10:36:26.966Z,42.97
2019-01-25T10:38:55.233Z,45.73
2019-01-25T10:41:23.532Z,41.77
2019-01-25T10:43:51.778Z,45.93
2019-01-25T10:46:20.058Z,40.20
2019-01-25T10:48:48.359Z,47.27
2019-01-25T10:51:16.633Z,44.63
2019-01-25T10:53:44.874Z,43.03
2019-01-25T10:56:13.222Z,45.30
2019-01-25T10:58:41.442Z,42.80
2019-01-25T11:01:09.729Z,45.47
2019-01-25T11:03:37.962Z,37.93
2019-01-25T11:06:06.219Z,34.63
2019-01-25T11:08:34.446Z,30.00
2019-01-25T11:11:02.834Z,27.83
2019-01-25T11:13:31.078Z,26.10
2019-01-25T11:15:59.393Z,28.20
2019-01-25T11:18:27.622Z,29.77
2019-01-25T11:20:55.885Z,30.80
2019-01-25T11:23:24.132Z,26.37
2019-01-25T11:25:52.407Z,27.07
2019-01-25T11:28:20.636Z,29.33
2019-01-25T11:30:48.932Z,29.10
2019-01-25T11:33:17.205Z,28.73
2019-01-25T11:35:45.501Z,30.20
2019-01-25T11:38:13.794Z,28.23
2019-01-25T11:40:43.549Z,29.27
2019-01-25T11:43:11.854Z,29.10
2019-01-25T11:45:40.253Z,29.50
2019-01-25T11:48:17.421Z,30.87
2019-01-25T11:50:45.692Z,31.70
2019-01-25T11:53:13.930Z,28.73
2019-01-25T11:55:42.204Z,30.97
2019-01-25T11:58:10.526Z,29.83
2019-01-25T12:00:41.750Z,28.93
2019-01-25T12:03:09.997Z,28.13
2019-01-25T12:05:38.333Z,32.93
2019-01-25T12:08:06.576Z,33.70
2019-01-25T12:10:34.945Z,30.03
2019-01-25T12:13:03.196Z,34.37
2019-01-25T12:15:31.486Z,30.87
2019-01-25T12:17:59.748Z,35.73
2019-01-25T12:20:28.668Z,36.57
2019-01-25T12:22:59.366Z,35.87
2019-01-25T12:25:30.599Z,37.50
2019-01-25T12:27:58.904Z,34.77
2019-01-25T12:30:28.132Z,34.67
2019-01-25T12:32:56.423Z,33.63
2019-01-25T12:35:24.711Z,35.47
2019-01-25T12:37:52.998Z,33.27
2019-01-25T12:40:21.240Z,35.20
2019-01-25T12:42:51.150Z,37.67
2019-01-25T12:45:20.454Z,40.53
2019-01-25T12:47:48.714Z,33.20
2019-01-25T12:50:18.662Z,38.03
2019-01-25T12:52:47.018Z,37.23
2019-01-25T12:55:15.296Z,39.60
2019-01-25T12:57:43.587Z,36.63
2019-01-25T13:00:12.670Z,36.93
2019-01-25T13:02:41.979Z,35.83
2019-01-25T13:05:11.330Z,34.50
2019-01-25T13:07:39.604Z,34.70
2019-01-25T13:10:08.800Z,37.37
2019-01-25T13:12:37.046Z,38.07
2019-01-25T13:15:05.463Z,38.07
2019-01-25T13:17:33.813Z,32.50
2019-01-25T13:20:02.134Z,39.90
2019-01-25T13:22:30.500Z,39.63
2019-01-25T13:24:58.835Z,39.20
2019-01-25T13:27:27.129Z,37.57
2019-01-25T13:29:55.397Z,37.67
2019-01-25T13:32:23.808Z,39.27
2019-01-25T13:34:52.055Z,36.67
2019-01-25T13:37:20.360Z,38.27
2019-01-25T13:39:48.728Z,39.03
2019-01-25T13:42:17.059Z,43.67
2019-01-25T13:44:45.315Z,38.77
2019-01-25T13:47:13.560Z,40.30
2019-01-25T13:49:42.719Z,43.23
2019-01-25T13:52:11.007Z,43.27
2019-01-25T13:54:39.312Z,46.47
2019-01-25T13:57:07.565Z,45.47
2019-01-25T13:59:37.287Z,45.73
2019-01-25T14:02:05.605Z,51.77
2019-01-25T14:04:33.972Z,45.43
2019-01-25T14:07:02.283Z,49.07
2019-01-25T14:09:30.583Z,49.13
2019-01-25T14:11:58.856Z,52.60
2019-01-25T14:14:27.172Z,48.87
2019-01-25T14:16:55.443Z,51.23
2019-01-25T14:19:23.746Z,50.87
2019-01-25T14:21:52.074Z,48.60
2019-01-25T14:24:20.446Z,47.90
2019-01-25T14:26:48.716Z,49.03
2019-01-25T14:29:19.157Z,54.10
2019-01-25T14:31:47.444Z,49.03
2019-01-25T14:34:15.743Z,50.17
2019-01-25T14:36:43.992Z,47.60
2019-01-25T14:39:12.277Z,52.53
2019-01-25T14:41:40.599Z,53.07
2019-01-25T14:44:08.913Z,50.03
2019-01-25T14:46:37.178Z,47.53
2019-01-25T14:49:05.470Z,54.27
2019-01-25T14:51:33.721Z,49.83
2019-01-25T14:54:01.992Z,53.00
2019-01-25T14:56:30.345Z,52.47
2019-01-25T14:58:58.668Z,55.73
2019-01-25T15:01:27.002Z,58.17
2019-01-25T15:03:55.440Z,56.90
2019-01-25T15:06:24.907Z,53.30
2019-01-25T15:08:53.235Z,57.67
2019-01-25T15:11:22.536Z,52.67
2019-01-25T15:13:50.795Z,54.50
2019-01-25T15:16:19.073Z,51.40
2019-01-25T15:18:47.346Z,57.87
2019-01-25T15:21:15.732Z,63.90
2019-01-25T15:23:44.123Z,58.47
2019-01-25T15:26:12.537Z,72.07
2019-01-25T15:28:40.963Z,59.63
2019-01-25T15:31:09.269Z,63.23
2019-01-25T15:33:37.571Z,66.27
2019-01-25T15:36:05.822Z,66.63
2019-01-25T15:38:34.189Z,69.40
2019-01-25T15:41:04.208Z,64.97
2019-01-25T15:43:32.660Z,63.13
2019-01-25T15:46:00.979Z,74.50
2019-01-25T15:48:29.313Z,70.20
2019-01-25T15:50:57.630Z,67.87
2019-01-25T15:53:25.910Z,67.33
2019-01-25T15:55:54.189Z,61.70
2019-01-25T15:58:23.916Z,64.90
2019-01-25T16:00:52.574Z,63.70
2019-01-25T16:03:20.936Z,68.23
2019-01-25T16:05:49.224Z,68.83
2019-01-25T16:08:17.540Z,73.57
2019-01-25T16:10:45.824Z,67.47
2019-01-25T16:13:14.084Z,67.40
2019-01-25T16:15:42.407Z,61.03
2019-01-25T16:18:10.637Z,66.83
2019-01-25T16:20:38.934Z,63.53
2019-01-25T16:23:07.202Z,68.07
2019-01-25T16:25:35.465Z,67.97
2019-01-25T16:28:03.808Z,64.90
2019-01-25T16:30:33.236Z,65.73
2019-01-25T16:33:01.528Z,63.40
2019-01-25T16:35:47.565Z,67.57
2019-01-25T16:38:18.930Z,64.37
2019-01-25T16:40:47.285Z,68.53
2019-01-25T16:43:15.589Z,66.97
2019-01-25T16:45:44.195Z,59.87
2019-01-25T16:48:12.464Z,56.57
2019-01-25T16:50:40.827Z,60.30
2019-01-25T16:53:10.265Z,54.37
2019-01-25T16:55:38.579Z,56.27
2019-01-25T16:58:06.945Z,53.30
2019-01-25T17:00:36.437Z,54.10
2019-01-25T17:03:04.735Z,52.07
2019-01-25T17:05:33.197Z,52.33
2019-01-25T17:08:01.577Z,46.70
2019-01-25T17:10:29.884Z,56.63
2019-01-25T17:12:58.155Z,46.80
2019-01-25T17:15:26.782Z,49.77
2019-01-25T17:17:55.065Z,51.17
2019-01-25T17:20:24.813Z,53.23
2019-01-25T17:22:53.156Z,45.80
2019-01-25T17:25:22.175Z,50.77
2019-01-25T17:27:50.495Z,49.63
2019-01-25T17:30:22.842Z,48.87
2019-01-25T17:32:51.403Z,51.37
2019-01-25T17:35:23.861Z,47.73
2019-01-25T17:37:52.120Z,50.13
2019-01-25T17:40:21.268Z,49.20
2019-01-25T17:42:49.591Z,51.77
2019-01-25T17:45:17.854Z,57.23
2019-01-25T17:47:46.088Z,50.33
2019-01-25T17:50:14.445Z,56.40
2019-01-25T17:52:42.802Z,47.10
2019-01-25T17:55:11.203Z,51.87
2019-01-25T17:57:39.560Z,55.03
2019-01-25T18:00:10.202Z,55.00
2019-01-25T18:02:38.495Z,52.80
2019-01-25T18:05:07.063Z,55.33
2019-01-25T18:07:37.069Z,52.63
2019-01-25T18:10:05.827Z,50.60
2019-01-25T18:12:34.122Z,48.33
2019-01-25T18:15:02.419Z,49.23
2019-01-25T18:17:30.777Z,45.80
2019-01-25T18:19:59.123Z,50.17
2019-01-25T18:22:28.452Z,48.50
2019-01-25T18:24:56.811Z,48.63
2019-01-25T18:27:25.094Z,46.17
2019-01-25T18:29:57.813Z,50.37
2019-01-25T18:32:26.370Z,46.17
2019-01-25T18:34:55.020Z,50.60
2019-01-25T18:37:23.768Z,46.87
2019-01-25T18:39:52.645Z,47.60
2019-01-25T18:42:20.962Z,46.33
2019-01-25T18:44:56.516Z,49.13
2019-01-25T18:47:19.263Z,45.90
2019-01-25T18:49:47.776Z,46.63
2019-01-25T18:52:16.050Z,49.83
2019-01-25T18:54:44.378Z,48.00
2019-01-25T18:57:12.637Z,47.67
2019-01-25T18:59:40.991Z,49.90
2019-01-25T19:02:09.314Z,45.93
2019-01-25T19:04:37.573Z,45.17
2019-01-25T19:07:06.176Z,49.00
2019-01-25T19:09:34.485Z,46.03
2019-01-25T19:12:02.748Z,41.40
2019-01-25T19:14:31.120Z,45.00
2019-01-25T19:16:59.398Z,46.10
2019-01-25T19:19:27.789Z,48.80
2019-01-25T19:21:56.076Z,46.83
2019-01-25T19:24:25.138Z,50.17
2019-01-25T19:26:53.644Z,44.87
2019-01-25T19:29:22.003Z,46.83
2019-01-25T19:31:50.537Z,45.17
2019-01-25T19:34:18.797Z,42.40
2019-01-25T19:36:47.171Z,46.27
2019-01-25T19:39:15.635Z,46.33
2019-01-25T19:41:43.878Z,46.07
2019-01-25T19:44:12.195Z,48.07
2019-01-25T19:46:40.453Z,48.13
2019-01-25T19:49:08.739Z,48.40
2019-01-25T19:51:37.024Z,48.00
2019-01-25T19:54:05.343Z,53.07
2019-01-25T19:56:34.142Z,47.85
2019-01-25T19:59:02.605Z,47.43
2019-01-25T20:01:31.022Z,46.27
2019-01-25T20:03:59.327Z,45.97
2019-01-25T20:06:27.658Z,46.97
2019-01-25T20:08:55.927Z,51.07
2019-01-25T20:11:24.206Z,47.80
2019-01-25T20:13:52.546Z,50.97
2019-01-25T20:16:20.796Z,49.10
2019-01-25T20:18:49.095Z,44.23
2019-01-25T20:21:17.434Z,45.60
2019-01-25T20:23:45.761Z,51.90
2019-01-25T20:26:14.177Z,46.90
2019-01-25T20:28:42.806Z,50.50
2019-01-25T20:31:12.100Z,48.20
2019-01-25T20:33:40.840Z,52.17
2019-01-25T20:36:09.238Z,51.90
2019-01-25T20:38:37.576Z,52.53
2019-01-25T20:41:07.049Z,53.33
2019-01-25T20:43:35.599Z,51.13
2019-01-25T20:46:03.942Z,55.40
2019-01-25T20:48:32.300Z,50.87
2019-01-25T20:51:00.735Z,50.80
2019-01-25T20:53:29.071Z,55.10
2019-01-25T20:55:57.355Z,58.53
2019-01-25T20:58:25.663Z,56.87
2019-01-25T21:00:54.597Z,56.27
2019-01-25T21:03:23.010Z,59.70
2019-01-25T21:05:51.448Z,52.70
2019-01-25T21:08:19.792Z,50.20
2019-01-25T21:10:48.079Z,53.50
2019-01-25T21:13:16.420Z,54.63
2019-01-25T21:15:44.751Z,52.07
2019-01-25T21:18:12.991Z,56.53
2019-01-25T21:20:42.384Z,53.73
2019-01-25T21:23:10.756Z,54.83
2019-01-25T21:25:39.226Z,53.27
2019-01-25T21:28:07.559Z,52.83
2019-01-25T21:30:36.054Z,54.60
2019-01-25T21:33:04.551Z,57.33
2019-01-25T21:35:32.934Z,55.53
2019-01-25T21:38:01.323Z,55.17
2019-01-25T21:40:30.176Z,56.50
2019-01-25T21:42:58.563Z,58.03
2019-01-25T21:45:27.771Z,51.40
2019-01-25T21:47:56.132Z,55.70
2019-01-25T21:50:25.654Z,57.20
2019-01-25T21:52:53.996Z,53.30
2019-01-25T21:55:22.305Z,50.43
2019-01-25T21:57:50.639Z,53.23
2019-01-25T22:00:20.137Z,52.13
2019-01-25T22:02:48.406Z,54.47
2019-01-25T22:05:16.769Z,52.60
2019-01-25T22:07:45.165Z,49.57
2019-01-25T22:10:14.849Z,54.77
2019-01-25T22:12:43.156Z,49.73
2019-01-25T22:15:12.115Z,52.33
2019-01-25T22:17:40.471Z,53.23
2019-01-25T22:20:10.887Z,50.10
2019-01-25T22:22:39.209Z,47.70
2019-01-25T22:25:07.666Z,52.60
2019-01-25T22:27:36.021Z,48.70
2019-01-25T22:30:05.366Z,46.13
2019-01-25T22:32:33.649Z,53.93
2019-01-25T22:35:02.113Z,48.10
2019-01-25T22:37:30.537Z,51.67
2019-01-25T22:39:58.810Z,51.70
2019-01-25T22:42:27.106Z,47.23
2019-01-25T22:44:55.416Z,50.70
2019-01-25T22:47:23.766Z,49.00
2019-01-25T22:49:52.046Z,49.20
2019-01-25T22:52:20.290Z,50.47
2019-01-25T22:54:48.591Z,46.50
2019-01-25T22:57:16.828Z,47.47
2019-01-25T22:59:45.151Z,43.93
2019-01-25T23:02:13.500Z,45.30
2019-01-25T23:04:45.518Z,45.37
2019-01-25T23:07:22.718Z,44.40
2019-01-25T23:09:52.055Z,48.23
2019-01-25T23:12:20.360Z,43.47
2019-01-25T23:14:48.596Z,42.57
2019-01-25T23:17:16.934Z,45.27
2019-01-25T23:19:45.171Z,44.90
2019-01-25T23:22:15.799Z,44.60
2019-01-25T23:24:44.114Z,49.13
2019-01-25T23:27:12.431Z,44.00
2019-01-25T23:29:40.700Z,41.57
2019-01-25T23:32:08.962Z,43.00
2019-01-25T23:34:37.244Z,44.87
2019-01-25T23:37:05.542Z,42.13
2019-01-25T23:39:33.862Z,43.50
2019-01-25T23:42:02.219Z,39.40
2019-01-25T23:44:30.531Z,44.13
2019-01-25T23:46:58.836Z,45.17
2019-01-25T23:49:27.172Z,45.67
2019-01-25T23:51:55.423Z,40.50
2019-01-25T23:54:23.827Z,44.50
2019-01-25T23:56:52.106Z,42.83
2019-01-25T23:59:20.532Z,44.00
